메인 페이지
METAR-TAF:

METAR-TAF

공항 :

라과디아 공항

뉴욕 / 라가디아, 뉴욕, 미국

위도: 40-46-45N, 경도: 073-52-48W, 고도: 6m

현재 날씨관측

예보는 1 시간 5분 전, 22:51시(UTC)에 발표되었습니다.
21kt, 순간 최대 풍속 27kt
온도 8°C
습도 46%
기압 1005 hPa
시정: 16.1km
고도 4300ft 상공 구름 조금
고도 6000ft 상공 흐림

METAR: KLGA 012251Z 26021G27KT 10SM FEW043 OVC060 08/M03 A2968 RMK AO2 PK WND 25027/2251 SLP049 T00831033

시각: 18:56 (23:56 UTC)

예보

예보는 17분 전, 23:39시(UTC)에 발표되었습니다.
예보 대상 시간: 02일 00시부터 03일 06시까지 (UTC)
서남서17kt, 순간 최대 풍속 27kt
시정: 10km
고도 4000ft 상공 구름 조금
고도 6000ft 상공 구름 많음
02일 0200시부터 (UTC)
서남서14kt, 순간 최대 풍속 22kt
시정: 10km
고도 6000ft 상공 구름 보통
02일 1700시부터 (UTC)
16kt, 순간 최대 풍속 23kt
시정: 10km
고도 5000ft 상공 구름 많음
02일 2300시부터 (UTC)
14kt, 순간 최대 풍속 21kt
시정: 10km
고도 5000ft 상공 구름 조금
03일 0400시부터 (UTC)
13kt
시정: 10km
맑음

TAF: KLGA 012339Z 0200/0306 25017G27KT P6SM FEW040 BKN060 FM020200 24014G22KT P6SM SCT060 FM021700 26016G23KT P6SM BKN050 FM022300 28014G21KT P6SM FEW050 FM030400 28013KT P6SM SKC

4,000개 이상의 공항 관측 자료 및 예보 (METAR 및 TAF 보고).

지도상에서 검색 가능한 기상관측소가 노란 점과 빨간 점으로 표시되어 있습니다.

기상관측소 명을 보려면 표시 위로 마우스를 이동하세요.

날씨 관측과 예보를 보려면 클릭하세요.

지도 변경 : 확대하려면 엑스 표시가 있는 녹색 버튼, 축소하려면 빼기 표시가 있는 녹색 버튼, 다음 페이지의 지도를 보려면 녹색 화살표를 클릭하세요.


METAR-TAF: